sensor_id;sensor_type;location;lat;lon;timestamp;P1;durP1;ratioP1;P2;durP2;ratioP2
487;SDS011;16586;48.976;9.584;2022-12-16T00:01:50;8.65;;;8.15;;
487;SDS011;16586;48.976;9.584;2022-12-16T00:04:17;9.03;;;8.53;;
487;SDS011;16586;48.976;9.584;2022-12-16T00:06:43;9.20;;;8.70;;
487;SDS011;16586;48.976;9.584;2022-12-16T00:09:12;8.70;;;8.20;;
487;SDS011;16586;48.976;9.584;2022-12-16T00:11:38;9.63;;;9.13;;
487;SDS011;16586;48.976;9.584;2022-12-16T00:14:05;8.67;;;8.17;;
487;SDS011;16586;48.976;9.584;2022-12-16T00:16:32;8.98;;;8.48;;
487;SDS011;16586;48.976;9.584;2022-12-16T00:18:59;8.40;;;7.95;;
487;SDS011;16586;48.976;9.584;2022-12-16T00:21:25;8.77;;;8.27;;
487;SDS011;16586;48.976;9.584;2022-12-16T00:23:53;8.90;;;8.40;;
487;SDS011;16586;48.976;9.584;2022-12-16T00:26:22;7.80;;;7.40;;
487;SDS011;16586;48.976;9.584;2022-12-16T00:28:49;8.65;;;8.15;;
487;SDS011;16586;48.976;9.584;2022-12-16T00:31:16;8.80;;;8.30;;
487;SDS011;16586;48.976;9.584;2022-12-16T00:33:43;9.10;;;8.60;;
487;SDS011;16586;48.976;9.584;2022-12-16T00:36:09;7.75;;;7.35;;
487;SDS011;16586;48.976;9.584;2022-12-16T00:38:36;7.90;;;7.50;;
487;SDS011;16586;48.976;9.584;2022-12-16T00:41:03;8.35;;;7.93;;
487;SDS011;16586;48.976;9.584;2022-12-16T00:43:31;8.77;;;8.27;;
487;SDS011;16586;48.976;9.584;2022-12-16T00:45:58;8.60;;;8.10;;
487;SDS011;16586;48.976;9.584;2022-12-16T00:48:25;8.63;;;8.13;;
487;SDS011;16586;48.976;9.584;2022-12-16T00:50:52;7.82;;;7.43;;
487;SDS011;16586;48.976;9.584;2022-12-16T00:53:19;8.32;;;7.90;;
487;SDS011;16586;48.976;9.584;2022-12-16T00:55:47;8.15;;;7.75;;
487;SDS011;16586;48.976;9.584;2022-12-16T00:58:14;8.00;;;7.60;;
487;SDS011;16586;48.976;9.584;2022-12-16T01:00:42;9.13;;;8.63;;
487;SDS011;16586;48.976;9.584;2022-12-16T01:03:09;8.73;;;8.23;;
487;SDS011;16586;48.976;9.584;2022-12-16T01:05:36;8.95;;;8.45;;
487;SDS011;16586;48.976;9.584;2022-12-16T01:08:03;8.88;;;8.38;;
487;SDS011;16586;48.976;9.584;2022-12-16T01:10:30;9.27;;;8.77;;
487;SDS011;16586;48.976;9.584;2022-12-16T01:12:57;8.80;;;8.35;;
487;SDS011;16586;48.976;9.584;2022-12-16T01:15:24;9.13;;;8.63;;
487;SDS011;16586;48.976;9.584;2022-12-16T01:17:52;8.60;;;8.10;;
487;SDS011;16586;48.976;9.584;2022-12-16T01:20:19;8.80;;;8.30;;
487;SDS011;16586;48.976;9.584;2022-12-16T01:22:45;9.30;;;8.80;;
487;SDS011;16586;48.976;9.584;2022-12-16T01:25:12;9.10;;;8.60;;
487;SDS011;16586;48.976;9.584;2022-12-16T01:27:39;9.40;;;8.90;;
487;SDS011;16586;48.976;9.584;2022-12-16T01:30:06;9.35;;;8.85;;
487;SDS011;16586;48.976;9.584;2022-12-16T01:32:34;9.48;;;8.98;;
487;SDS011;16586;48.976;9.584;2022-12-16T01:35:03;9.98;;;9.48;;
487;SDS011;16586;48.976;9.584;2022-12-16T01:37:31;9.80;;;9.30;;
487;SDS011;16586;48.976;9.584;2022-12-16T01:39:58;9.48;;;8.98;;
487;SDS011;16586;48.976;9.584;2022-12-16T01:42:25;8.82;;;8.32;;
487;SDS011;16586;48.976;9.584;2022-12-16T01:44:55;9.80;;;9.30;;
487;SDS011;16586;48.976;9.584;2022-12-16T01:47:23;8.93;;;8.43;;
487;SDS011;16586;48.976;9.584;2022-12-16T01:49:53;9.05;;;8.55;;
487;SDS011;16586;48.976;9.584;2022-12-16T01:52:26;9.10;;;8.60;;
487;SDS011;16586;48.976;9.584;2022-12-16T01:54:55;10.65;;;10.05;;
487;SDS011;16586;48.976;9.584;2022-12-16T01:57:26;9.65;;;9.15;;
487;SDS011;16586;48.976;9.584;2022-12-16T01:59:58;9.70;;;9.20;;
487;SDS011;16586;48.976;9.584;2022-12-16T02:02:27;10.07;;;9.57;;
487;SDS011;16586;48.976;9.584;2022-12-16T02:04:54;9.90;;;9.40;;
487;SDS011;16586;48.976;9.584;2022-12-16T02:07:39;9.27;;;8.77;;
487;SDS011;16586;48.976;9.584;2022-12-16T02:10:06;10.23;;;9.73;;
487;SDS011;16586;48.976;9.584;2022-12-16T02:12:37;9.27;;;8.77;;
487;SDS011;16586;48.976;9.584;2022-12-16T02:15:14;9.05;;;8.55;;
487;SDS011;16586;48.976;9.584;2022-12-16T02:17:52;9.40;;;8.90;;
487;SDS011;16586;48.976;9.584;2022-12-16T02:23:42;9.30;;;8.80;;
487;SDS011;16586;48.976;9.584;2022-12-16T02:26:40;9.07;;;8.57;;
487;SDS011;16586;48.976;9.584;2022-12-16T02:29:43;9.50;;;9.00;;
487;SDS011;16586;48.976;9.584;2022-12-16T02:32:35;9.13;;;8.63;;
487;SDS011;16586;48.976;9.584;2022-12-16T02:35:14;9.02;;;8.52;;
487;SDS011;16586;48.976;9.584;2022-12-16T02:37:46;8.90;;;8.40;;
487;SDS011;16586;48.976;9.584;2022-12-16T02:40:22;8.95;;;8.45;;
487;SDS011;16586;48.976;9.584;2022-12-16T02:42:52;10.07;;;9.57;;
487;SDS011;16586;48.976;9.584;2022-12-16T02:45:26;9.20;;;8.70;;
487;SDS011;16586;48.976;9.584;2022-12-16T02:47:56;10.07;;;9.57;;
487;SDS011;16586;48.976;9.584;2022-12-16T02:50:24;10.25;;;9.75;;
487;SDS011;16586;48.976;9.584;2022-12-16T02:52:53;10.60;;;10.00;;
487;SDS011;16586;48.976;9.584;2022-12-16T02:55:22;9.73;;;9.23;;
487;SDS011;16586;48.976;9.584;2022-12-16T02:58:06;9.73;;;9.23;;
487;SDS011;16586;48.976;9.584;2022-12-16T03:00:40;9.10;;;8.60;;
487;SDS011;16586;48.976;9.584;2022-12-16T03:03:19;8.68;;;8.18;;
487;SDS011;16586;48.976;9.584;2022-12-16T03:05:52;9.35;;;8.85;;
487;SDS011;16586;48.976;9.584;2022-12-16T03:08:21;9.95;;;9.45;;
487;SDS011;16586;48.976;9.584;2022-12-16T03:10:53;9.20;;;8.70;;
487;SDS011;16586;48.976;9.584;2022-12-16T03:13:22;8.40;;;7.95;;
487;SDS011;16586;48.976;9.584;2022-12-16T03:15:52;9.63;;;9.13;;
487;SDS011;16586;48.976;9.584;2022-12-16T03:18:23;9.45;;;8.95;;
487;SDS011;16586;48.976;9.584;2022-12-16T03:20:52;9.18;;;8.68;;
487;SDS011;16586;48.976;9.584;2022-12-16T03:23:23;9.30;;;8.80;;
487;SDS011;16586;48.976;9.584;2022-12-16T03:25:54;9.35;;;8.85;;
487;SDS011;16586;48.976;9.584;2022-12-16T03:28:27;8.65;;;8.15;;
487;SDS011;16586;48.976;9.584;2022-12-16T03:31:03;9.10;;;8.60;;
487;SDS011;16586;48.976;9.584;2022-12-16T03:33:36;9.40;;;8.90;;
487;SDS011;16586;48.976;9.584;2022-12-16T03:36:07;9.48;;;8.98;;
487;SDS011;16586;48.976;9.584;2022-12-16T03:38:36;10.10;;;9.60;;
487;SDS011;16586;48.976;9.584;2022-12-16T03:41:05;10.75;;;10.15;;
487;SDS011;16586;48.976;9.584;2022-12-16T03:43:33;10.30;;;9.80;;
487;SDS011;16586;48.976;9.584;2022-12-16T03:46:01;10.30;;;9.80;;
487;SDS011;16586;48.976;9.584;2022-12-16T03:48:31;10.77;;;10.18;;
487;SDS011;16586;48.976;9.584;2022-12-16T03:50:59;9.75;;;9.25;;
487;SDS011;16586;48.976;9.584;2022-12-16T03:53:26;10.40;;;9.90;;
487;SDS011;16586;48.976;9.584;2022-12-16T03:55:53;11.40;;;10.80;;
487;SDS011;16586;48.976;9.584;2022-12-16T03:58:20;11.25;;;10.65;;
487;SDS011;16586;48.976;9.584;2022-12-16T04:00:47;10.67;;;10.07;;
487;SDS011;16586;48.976;9.584;2022-12-16T04:03:14;10.30;;;9.80;;
487;SDS011;16586;48.976;9.584;2022-12-16T04:05:41;10.90;;;10.30;;
487;SDS011;16586;48.976;9.584;2022-12-16T04:08:09;11.13;;;10.52;;
487;SDS011;16586;48.976;9.584;2022-12-16T04:10:36;11.38;;;10.77;;
487;SDS011;16586;48.976;9.584;2022-12-16T04:13:31;9.90;;;9.40;;
487;SDS011;16586;48.976;9.584;2022-12-16T04:16:15;10.88;;;10.27;;
487;SDS011;16586;48.976;9.584;2022-12-16T04:19:00;9.50;;;9.00;;
487;SDS011;16586;48.976;9.584;2022-12-16T04:21:44;11.20;;;10.60;;
487;SDS011;16586;48.976;9.584;2022-12-16T04:24:30;11.30;;;10.70;;
487;SDS011;16586;48.976;9.584;2022-12-16T04:26:57;11.25;;;10.65;;
487;SDS011;16586;48.976;9.584;2022-12-16T04:29:42;10.70;;;10.10;;
487;SDS011;16586;48.976;9.584;2022-12-16T04:32:23;10.10;;;9.60;;
487;SDS011;16586;48.976;9.584;2022-12-16T04:34:50;9.80;;;9.30;;
487;SDS011;16586;48.976;9.584;2022-12-16T04:37:16;9.77;;;9.27;;
487;SDS011;16586;48.976;9.584;2022-12-16T04:40:02;9.40;;;8.90;;
487;SDS011;16586;48.976;9.584;2022-12-16T04:42:47;9.40;;;8.90;;
487;SDS011;16586;48.976;9.584;2022-12-16T04:45:45;9.70;;;9.20;;
487;SDS011;16586;48.976;9.584;2022-12-16T04:48:30;9.90;;;9.40;;
487;SDS011;16586;48.976;9.584;2022-12-16T04:51:14;8.30;;;7.90;;
487;SDS011;16586;48.976;9.584;2022-12-16T04:53:58;9.40;;;8.90;;
487;SDS011;16586;48.976;9.584;2022-12-16T04:56:44;9.55;;;9.05;;
487;SDS011;16586;48.976;9.584;2022-12-16T04:59:30;9.50;;;9.00;;
487;SDS011;16586;48.976;9.584;2022-12-16T05:02:14;9.60;;;9.10;;
487;SDS011;16586;48.976;9.584;2022-12-16T05:04:58;9.50;;;9.00;;
487;SDS011;16586;48.976;9.584;2022-12-16T05:07:42;8.90;;;8.40;;
487;SDS011;16586;48.976;9.584;2022-12-16T05:10:26;9.27;;;8.77;;
487;SDS011;16586;48.976;9.584;2022-12-16T05:13:12;8.97;;;8.47;;
487;SDS011;16586;48.976;9.584;2022-12-16T05:16:11;8.98;;;8.48;;
487;SDS011;16586;48.976;9.584;2022-12-16T05:18:55;8.95;;;8.45;;
487;SDS011;16586;48.976;9.584;2022-12-16T05:21:40;9.13;;;8.63;;
487;SDS011;16586;48.976;9.584;2022-12-16T05:24:36;8.90;;;8.40;;
487;SDS011;16586;48.976;9.584;2022-12-16T05:27:20;8.50;;;8.00;;
487;SDS011;16586;48.976;9.584;2022-12-16T05:30:06;8.70;;;8.20;;
487;SDS011;16586;48.976;9.584;2022-12-16T05:32:51;8.68;;;8.18;;
487;SDS011;16586;48.976;9.584;2022-12-16T05:35:35;7.53;;;7.13;;
487;SDS011;16586;48.976;9.584;2022-12-16T05:38:19;7.50;;;7.10;;
487;SDS011;16586;48.976;9.584;2022-12-16T05:41:03;8.93;;;8.43;;
487;SDS011;16586;48.976;9.584;2022-12-16T05:43:47;7.70;;;7.30;;
487;SDS011;16586;48.976;9.584;2022-12-16T05:46:33;7.45;;;7.05;;
487;SDS011;16586;48.976;9.584;2022-12-16T05:49:17;7.68;;;7.28;;
487;SDS011;16586;48.976;9.584;2022-12-16T05:52:01;7.80;;;7.40;;
487;SDS011;16586;48.976;9.584;2022-12-16T05:54:45;7.32;;;6.93;;
487;SDS011;16586;48.976;9.584;2022-12-16T05:57:29;7.30;;;6.90;;
487;SDS011;16586;48.976;9.584;2022-12-16T06:00:16;7.13;;;6.72;;
487;SDS011;16586;48.976;9.584;2022-12-16T06:02:58;7.70;;;7.30;;
487;SDS011;16586;48.976;9.584;2022-12-16T06:05:43;8.45;;;7.97;;
487;SDS011;16586;48.976;9.584;2022-12-16T06:08:27;8.82;;;8.32;;
487;SDS011;16586;48.976;9.584;2022-12-16T06:11:11;8.82;;;8.32;;
487;SDS011;16586;48.976;9.584;2022-12-16T06:14:07;7.70;;;7.30;;
487;SDS011;16586;48.976;9.584;2022-12-16T06:16:51;8.40;;;7.95;;
487;SDS011;16586;48.976;9.584;2022-12-16T06:19:37;8.30;;;7.90;;
487;SDS011;16586;48.976;9.584;2022-12-16T06:22:21;7.82;;;7.43;;
487;SDS011;16586;48.976;9.584;2022-12-16T06:25:05;7.60;;;7.20;;
487;SDS011;16586;48.976;9.584;2022-12-16T06:27:50;7.40;;;7.00;;
487;SDS011;16586;48.976;9.584;2022-12-16T06:30:35;7.43;;;7.03;;
487;SDS011;16586;48.976;9.584;2022-12-16T06:33:20;7.53;;;7.13;;
487;SDS011;16586;48.976;9.584;2022-12-16T06:36:06;7.88;;;7.47;;
487;SDS011;16586;48.976;9.584;2022-12-16T06:38:51;6.95;;;6.55;;
487;SDS011;16586;48.976;9.584;2022-12-16T06:41:35;6.90;;;6.50;;
487;SDS011;16586;48.976;9.584;2022-12-16T06:44:19;7.10;;;6.70;;
487;SDS011;16586;48.976;9.584;2022-12-16T06:47:03;6.85;;;6.45;;
487;SDS011;16586;48.976;9.584;2022-12-16T06:49:47;6.10;;;5.80;;
487;SDS011;16586;48.976;9.584;2022-12-16T06:52:33;7.23;;;6.33;;
487;SDS011;16586;48.976;9.584;2022-12-16T06:55:17;6.53;;;6.13;;
487;SDS011;16586;48.976;9.584;2022-12-16T06:58:01;6.90;;;6.50;;
487;SDS011;16586;48.976;9.584;2022-12-16T07:00:45;6.82;;;6.43;;
487;SDS011;16586;48.976;9.584;2022-12-16T07:03:29;6.88;;;6.47;;
487;SDS011;16586;48.976;9.584;2022-12-16T07:06:14;6.80;;;6.40;;
487;SDS011;16586;48.976;9.584;2022-12-16T07:09:00;5.70;;;5.40;;
487;SDS011;16586;48.976;9.584;2022-12-16T07:11:44;6.65;;;6.25;;
487;SDS011;16586;48.976;9.584;2022-12-16T07:14:39;5.90;;;5.60;;
487;SDS011;16586;48.976;9.584;2022-12-16T07:17:24;6.50;;;6.10;;
487;SDS011;16586;48.976;9.584;2022-12-16T07:20:09;6.40;;;6.03;;
487;SDS011;16586;48.976;9.584;2022-12-16T07:22:54;5.88;;;5.57;;
487;SDS011;16586;48.976;9.584;2022-12-16T07:25:39;6.13;;;5.82;;
487;SDS011;16586;48.976;9.584;2022-12-16T07:28:23;5.70;;;5.40;;
487;SDS011;16586;48.976;9.584;2022-12-16T07:31:10;6.00;;;5.70;;
487;SDS011;16586;48.976;9.584;2022-12-16T07:33:54;5.90;;;5.60;;
487;SDS011;16586;48.976;9.584;2022-12-16T07:36:38;5.82;;;5.53;;
487;SDS011;16586;48.976;9.584;2022-12-16T07:39:22;5.47;;;5.17;;
487;SDS011;16586;48.976;9.584;2022-12-16T07:42:07;5.70;;;5.40;;
487;SDS011;16586;48.976;9.584;2022-12-16T07:44:52;5.40;;;5.10;;
487;SDS011;16586;48.976;9.584;2022-12-16T07:47:36;5.57;;;5.28;;
487;SDS011;16586;48.976;9.584;2022-12-16T07:50:20;6.00;;;5.70;;
487;SDS011;16586;48.976;9.584;2022-12-16T07:53:04;5.80;;;5.50;;
487;SDS011;16586;48.976;9.584;2022-12-16T07:55:48;5.15;;;4.85;;
487;SDS011;16586;48.976;9.584;2022-12-16T07:58:35;5.70;;;5.40;;
487;SDS011;16586;48.976;9.584;2022-12-16T08:01:18;5.07;;;4.78;;
487;SDS011;16586;48.976;9.584;2022-12-16T08:04:03;5.93;;;5.63;;
487;SDS011;16586;48.976;9.584;2022-12-16T08:06:47;5.60;;;5.30;;
487;SDS011;16586;48.976;9.584;2022-12-16T08:09:31;5.60;;;5.30;;
487;SDS011;16586;48.976;9.584;2022-12-16T08:12:15;6.00;;;5.70;;
487;SDS011;16586;48.976;9.584;2022-12-16T08:15:01;5.50;;;5.20;;
487;SDS011;16586;48.976;9.584;2022-12-16T08:17:47;5.68;;;5.38;;
487;SDS011;16586;48.976;9.584;2022-12-16T08:20:31;6.93;;;6.53;;
487;SDS011;16586;48.976;9.584;2022-12-16T08:23:12;5.90;;;5.60;;
487;SDS011;16586;48.976;9.584;2022-12-16T08:25:58;5.20;;;4.90;;
487;SDS011;16586;48.976;9.584;2022-12-16T08:28:43;5.30;;;5.00;;
487;SDS011;16586;48.976;9.584;2022-12-16T08:31:28;5.20;;;4.90;;
487;SDS011;16586;48.976;9.584;2022-12-16T08:34:12;4.93;;;4.63;;
487;SDS011;16586;48.976;9.584;2022-12-16T08:36:56;4.57;;;4.27;;
487;SDS011;16586;48.976;9.584;2022-12-16T08:39:41;5.13;;;4.82;;
487;SDS011;16586;48.976;9.584;2022-12-16T08:42:27;5.40;;;5.10;;
487;SDS011;16586;48.976;9.584;2022-12-16T08:45:12;4.80;;;4.50;;
487;SDS011;16586;48.976;9.584;2022-12-16T08:48:00;4.70;;;4.40;;
487;SDS011;16586;48.976;9.584;2022-12-16T08:50:47;5.10;;;4.80;;
487;SDS011;16586;48.976;9.584;2022-12-16T08:53:31;4.80;;;4.50;;
487;SDS011;16586;48.976;9.584;2022-12-16T08:56:30;4.95;;;4.65;;
487;SDS011;16586;48.976;9.584;2022-12-16T08:59:14;4.70;;;4.40;;
487;SDS011;16586;48.976;9.584;2022-12-16T09:02:13;4.80;;;4.50;;
487;SDS011;16586;48.976;9.584;2022-12-16T09:04:59;4.20;;;3.90;;
487;SDS011;16586;48.976;9.584;2022-12-16T09:07:51;4.40;;;4.10;;
487;SDS011;16586;48.976;9.584;2022-12-16T09:10:40;4.43;;;4.13;;
487;SDS011;16586;48.976;9.584;2022-12-16T09:13:25;4.03;;;3.83;;
487;SDS011;16586;48.976;9.584;2022-12-16T09:16:09;4.07;;;3.88;;
487;SDS011;16586;48.976;9.584;2022-12-16T09:18:53;4.00;;;3.80;;
487;SDS011;16586;48.976;9.584;2022-12-16T09:21:38;4.10;;;3.90;;
487;SDS011;16586;48.976;9.584;2022-12-16T09:24:23;4.30;;;4.00;;
487;SDS011;16586;48.976;9.584;2022-12-16T09:27:09;3.80;;;3.60;;
487;SDS011;16586;48.976;9.584;2022-12-16T09:29:53;3.72;;;3.53;;
487;SDS011;16586;48.976;9.584;2022-12-16T09:32:39;4.05;;;3.85;;
487;SDS011;16586;48.976;9.584;2022-12-16T09:35:24;3.80;;;3.60;;
487;SDS011;16586;48.976;9.584;2022-12-16T09:38:09;3.70;;;3.50;;
487;SDS011;16586;48.976;9.584;2022-12-16T09:40:53;4.40;;;4.10;;
487;SDS011;16586;48.976;9.584;2022-12-16T09:44:02;4.55;;;4.25;;
487;SDS011;16586;48.976;9.584;2022-12-16T09:46:55;3.90;;;3.70;;
487;SDS011;16586;48.976;9.584;2022-12-16T09:49:46;3.80;;;3.60;;
487;SDS011;16586;48.976;9.584;2022-12-16T09:52:31;3.92;;;3.35;;
487;SDS011;16586;48.976;9.584;2022-12-16T09:55:23;3.50;;;3.30;;
487;SDS011;16586;48.976;9.584;2022-12-16T09:58:14;3.40;;;3.20;;
487;SDS011;16586;48.976;9.584;2022-12-16T10:01:03;4.05;;;3.85;;
487;SDS011;16586;48.976;9.584;2022-12-16T10:03:50;3.70;;;3.50;;
487;SDS011;16586;48.976;9.584;2022-12-16T10:06:36;4.00;;;3.80;;
487;SDS011;16586;48.976;9.584;2022-12-16T10:09:28;3.40;;;3.20;;
487;SDS011;16586;48.976;9.584;2022-12-16T10:12:23;3.03;;;2.83;;
487;SDS011;16586;48.976;9.584;2022-12-16T10:15:16;3.00;;;2.80;;
487;SDS011;16586;48.976;9.584;2022-12-16T10:18:15;3.17;;;3.00;;
487;SDS011;16586;48.976;9.584;2022-12-16T10:21:08;3.10;;;2.90;;
487;SDS011;16586;48.976;9.584;2022-12-16T10:23:58;3.08;;;2.95;;
487;SDS011;16586;48.976;9.584;2022-12-16T10:26:52;3.20;;;3.00;;
487;SDS011;16586;48.976;9.584;2022-12-16T10:29:41;2.90;;;2.80;;
487;SDS011;16586;48.976;9.584;2022-12-16T10:32:28;3.70;;;2.70;;
487;SDS011;16586;48.976;9.584;2022-12-16T10:35:17;2.90;;;2.70;;
487;SDS011;16586;48.976;9.584;2022-12-16T10:38:05;3.67;;;3.00;;
487;SDS011;16586;48.976;9.584;2022-12-16T10:40:59;3.20;;;3.00;;
487;SDS011;16586;48.976;9.584;2022-12-16T10:43:44;3.25;;;2.90;;
487;SDS011;16586;48.976;9.584;2022-12-16T10:46:34;3.17;;;3.03;;
487;SDS011;16586;48.976;9.584;2022-12-16T10:49:19;3.00;;;2.80;;
487;SDS011;16586;48.976;9.584;2022-12-16T10:52:04;3.30;;;3.10;;
487;SDS011;16586;48.976;9.584;2022-12-16T10:54:50;3.17;;;2.97;;
487;SDS011;16586;48.976;9.584;2022-12-16T10:57:45;3.20;;;3.00;;
487;SDS011;16586;48.976;9.584;2022-12-16T11:00:40;2.88;;;2.75;;
487;SDS011;16586;48.976;9.584;2022-12-16T11:03:28;2.90;;;2.70;;
487;SDS011;16586;48.976;9.584;2022-12-16T11:06:14;2.80;;;2.60;;
487;SDS011;16586;48.976;9.584;2022-12-16T11:12:16;2.67;;;2.53;;
487;SDS011;16586;48.976;9.584;2022-12-16T11:15:17;2.85;;;2.65;;
487;SDS011;16586;48.976;9.584;2022-12-16T11:18:04;2.80;;;2.60;;
487;SDS011;16586;48.976;9.584;2022-12-16T11:21:04;2.85;;;2.65;;
487;SDS011;16586;48.976;9.584;2022-12-16T11:24:03;2.88;;;2.50;;
487;SDS011;16586;48.976;9.584;2022-12-16T11:26:53;3.00;;;2.80;;
487;SDS011;16586;48.976;9.584;2022-12-16T11:32:42;2.40;;;2.20;;
487;SDS011;16586;48.976;9.584;2022-12-16T11:35:30;2.22;;;2.03;;
487;SDS011;16586;48.976;9.584;2022-12-16T11:38:22;3.20;;;3.00;;
487;SDS011;16586;48.976;9.584;2022-12-16T11:41:11;2.70;;;2.50;;
487;SDS011;16586;48.976;9.584;2022-12-16T11:44:04;3.05;;;2.83;;
487;SDS011;16586;48.976;9.584;2022-12-16T11:46:51;3.10;;;2.90;;
487;SDS011;16586;48.976;9.584;2022-12-16T11:49:36;2.87;;;2.50;;
487;SDS011;16586;48.976;9.584;2022-12-16T11:52:20;3.20;;;3.00;;
487;SDS011;16586;48.976;9.584;2022-12-16T11:55:10;3.25;;;3.05;;
487;SDS011;16586;48.976;9.584;2022-12-16T11:58:00;2.70;;;2.50;;
487;SDS011;16586;48.976;9.584;2022-12-16T12:00:51;2.50;;;2.40;;
487;SDS011;16586;48.976;9.584;2022-12-16T12:03:47;2.63;;;2.47;;
487;SDS011;16586;48.976;9.584;2022-12-16T12:06:35;2.85;;;2.70;;
487;SDS011;16586;48.976;9.584;2022-12-16T12:09:30;3.15;;;3.00;;
487;SDS011;16586;48.976;9.584;2022-12-16T12:12:23;3.30;;;2.88;;
487;SDS011;16586;48.976;9.584;2022-12-16T12:15:17;3.50;;;3.10;;
487;SDS011;16586;48.976;9.584;2022-12-16T12:18:09;3.13;;;2.92;;
487;SDS011;16586;48.976;9.584;2022-12-16T12:20:59;3.28;;;3.10;;
487;SDS011;16586;48.976;9.584;2022-12-16T12:23:54;3.70;;;3.35;;
487;SDS011;16586;48.976;9.584;2022-12-16T12:26:49;3.20;;;3.00;;
487;SDS011;16586;48.976;9.584;2022-12-16T12:29:45;3.00;;;2.80;;
487;SDS011;16586;48.976;9.584;2022-12-16T12:32:39;2.97;;;2.73;;
487;SDS011;16586;48.976;9.584;2022-12-16T12:35:33;3.13;;;2.92;;
487;SDS011;16586;48.976;9.584;2022-12-16T12:38:28;3.30;;;2.70;;
487;SDS011;16586;48.976;9.584;2022-12-16T12:41:17;3.07;;;2.93;;
487;SDS011;16586;48.976;9.584;2022-12-16T12:44:07;2.90;;;2.70;;
487;SDS011;16586;48.976;9.584;2022-12-16T12:46:59;3.50;;;3.30;;
487;SDS011;16586;48.976;9.584;2022-12-16T12:49:49;3.40;;;3.20;;
487;SDS011;16586;48.976;9.584;2022-12-16T12:52:46;3.22;;;3.00;;
487;SDS011;16586;48.976;9.584;2022-12-16T12:55:42;2.97;;;2.80;;
487;SDS011;16586;48.976;9.584;2022-12-16T12:58:33;3.10;;;2.90;;
487;SDS011;16586;48.976;9.584;2022-12-16T13:01:18;3.30;;;3.10;;
487;SDS011;16586;48.976;9.584;2022-12-16T13:04:09;2.53;;;2.33;;
487;SDS011;16586;48.976;9.584;2022-12-16T13:06:56;3.28;;;3.08;;
487;SDS011;16586;48.976;9.584;2022-12-16T13:09:43;2.70;;;2.50;;
487;SDS011;16586;48.976;9.584;2022-12-16T13:12:28;3.30;;;3.10;;
487;SDS011;16586;48.976;9.584;2022-12-16T13:15:17;2.90;;;2.70;;
487;SDS011;16586;48.976;9.584;2022-12-16T13:24:41;2.40;;;2.10;;
487;SDS011;16586;48.976;9.584;2022-12-16T13:27:28;2.53;;;2.42;;
487;SDS011;16586;48.976;9.584;2022-12-16T13:30:27;2.50;;;2.30;;
487;SDS011;16586;48.976;9.584;2022-12-16T13:33:25;2.97;;;2.72;;
487;SDS011;16586;48.976;9.584;2022-12-16T13:36:11;3.40;;;3.20;;
487;SDS011;16586;48.976;9.584;2022-12-16T13:39:00;2.77;;;2.60;;
487;SDS011;16586;48.976;9.584;2022-12-16T13:42:02;4.60;;;3.30;;
487;SDS011;16586;48.976;9.584;2022-12-16T13:44:56;3.37;;;3.17;;
487;SDS011;16586;48.976;9.584;2022-12-16T13:47:59;2.40;;;2.30;;
487;SDS011;16586;48.976;9.584;2022-12-16T13:50:46;3.60;;;3.40;;
487;SDS011;16586;48.976;9.584;2022-12-16T13:53:32;3.80;;;2.38;;
487;SDS011;16586;48.976;9.584;2022-12-16T13:56:24;2.90;;;2.70;;
487;SDS011;16586;48.976;9.584;2022-12-16T13:59:13;2.50;;;2.30;;
487;SDS011;16586;48.976;9.584;2022-12-16T14:02:02;2.53;;;2.30;;
487;SDS011;16586;48.976;9.584;2022-12-16T14:04:59;5.95;;;5.70;;
487;SDS011;16586;48.976;9.584;2022-12-16T14:07:44;2.70;;;2.50;;
487;SDS011;16586;48.976;9.584;2022-12-16T14:10:28;2.60;;;2.20;;
487;SDS011;16586;48.976;9.584;2022-12-16T14:13:18;3.75;;;3.25;;
487;SDS011;16586;48.976;9.584;2022-12-16T14:16:07;3.00;;;2.80;;
487;SDS011;16586;48.976;9.584;2022-12-16T14:19:00;3.83;;;3.63;;
487;SDS011;16586;48.976;9.584;2022-12-16T14:21:56;2.80;;;2.60;;
487;SDS011;16586;48.976;9.584;2022-12-16T14:24:47;2.63;;;2.50;;
487;SDS011;16586;48.976;9.584;2022-12-16T14:27:32;3.78;;;3.58;;
487;SDS011;16586;48.976;9.584;2022-12-16T14:30:20;2.92;;;2.72;;
487;SDS011;16586;48.976;9.584;2022-12-16T14:40:17;3.15;;;2.97;;
487;SDS011;16586;48.976;9.584;2022-12-16T14:42:59;2.83;;;2.63;;
487;SDS011;16586;48.976;9.584;2022-12-16T14:45:48;3.58;;;3.40;;
487;SDS011;16586;48.976;9.584;2022-12-16T14:48:33;3.03;;;2.83;;
487;SDS011;16586;48.976;9.584;2022-12-16T14:51:24;3.45;;;3.25;;
487;SDS011;16586;48.976;9.584;2022-12-16T14:54:17;3.40;;;3.20;;
487;SDS011;16586;48.976;9.584;2022-12-16T14:57:09;3.42;;;3.22;;
487;SDS011;16586;48.976;9.584;2022-12-16T15:00:09;3.38;;;3.17;;
487;SDS011;16586;48.976;9.584;2022-12-16T15:02:58;4.20;;;3.20;;
487;SDS011;16586;48.976;9.584;2022-12-16T15:05:46;3.53;;;3.33;;
487;SDS011;16586;48.976;9.584;2022-12-16T15:08:34;3.30;;;3.10;;
487;SDS011;16586;48.976;9.584;2022-12-16T15:11:22;3.00;;;2.80;;
487;SDS011;16586;48.976;9.584;2022-12-16T15:14:08;3.30;;;3.10;;
487;SDS011;16586;48.976;9.584;2022-12-16T15:17:01;3.40;;;3.20;;
487;SDS011;16586;48.976;9.584;2022-12-16T15:19:48;3.20;;;3.00;;
487;SDS011;16586;48.976;9.584;2022-12-16T15:22:34;3.10;;;3.00;;
487;SDS011;16586;48.976;9.584;2022-12-16T15:25:19;3.40;;;3.20;;
487;SDS011;16586;48.976;9.584;2022-12-16T15:28:19;3.30;;;3.10;;
487;SDS011;16586;48.976;9.584;2022-12-16T15:31:12;3.20;;;3.00;;
487;SDS011;16586;48.976;9.584;2022-12-16T15:37:22;3.97;;;3.78;;
487;SDS011;16586;48.976;9.584;2022-12-16T15:40:18;3.40;;;3.20;;
487;SDS011;16586;48.976;9.584;2022-12-16T15:43:15;3.17;;;2.97;;
487;SDS011;16586;48.976;9.584;2022-12-16T15:46:15;3.38;;;3.17;;
487;SDS011;16586;48.976;9.584;2022-12-16T15:49:01;3.50;;;3.30;;
487;SDS011;16586;48.976;9.584;2022-12-16T15:51:47;3.40;;;3.20;;
487;SDS011;16586;48.976;9.584;2022-12-16T15:54:47;3.90;;;3.60;;
487;SDS011;16586;48.976;9.584;2022-12-16T15:57:34;3.70;;;3.50;;
487;SDS011;16586;48.976;9.584;2022-12-16T16:00:20;6.60;;;6.20;;
487;SDS011;16586;48.976;9.584;2022-12-16T16:03:19;4.40;;;4.10;;
487;SDS011;16586;48.976;9.584;2022-12-16T16:06:26;4.40;;;4.10;;
487;SDS011;16586;48.976;9.584;2022-12-16T16:13:13;5.00;;;4.70;;
487;SDS011;16586;48.976;9.584;2022-12-16T16:16:22;4.00;;;3.80;;
487;SDS011;16586;48.976;9.584;2022-12-16T16:19:08;3.90;;;3.80;;
487;SDS011;16586;48.976;9.584;2022-12-16T16:21:54;4.40;;;4.10;;
487;SDS011;16586;48.976;9.584;2022-12-16T16:24:39;4.50;;;4.20;;
487;SDS011;16586;48.976;9.584;2022-12-16T16:27:23;4.30;;;4.00;;
487;SDS011;16586;48.976;9.584;2022-12-16T16:30:12;4.10;;;3.53;;
487;SDS011;16586;48.976;9.584;2022-12-16T16:32:56;4.30;;;3.60;;
487;SDS011;16586;48.976;9.584;2022-12-16T16:35:40;3.83;;;3.63;;
487;SDS011;16586;48.976;9.584;2022-12-16T16:38:24;4.20;;;3.95;;
487;SDS011;16586;48.976;9.584;2022-12-16T16:41:09;3.38;;;3.17;;
487;SDS011;16586;48.976;9.584;2022-12-16T16:43:57;3.60;;;3.30;;
487;SDS011;16586;48.976;9.584;2022-12-16T16:46:42;3.92;;;3.72;;
487;SDS011;16586;48.976;9.584;2022-12-16T16:49:29;4.07;;;3.70;;
487;SDS011;16586;48.976;9.584;2022-12-16T16:52:16;3.25;;;3.10;;
487;SDS011;16586;48.976;9.584;2022-12-16T16:55:01;3.30;;;3.17;;
487;SDS011;16586;48.976;9.584;2022-12-16T16:57:45;3.10;;;2.90;;
487;SDS011;16586;48.976;9.584;2022-12-16T17:00:29;3.30;;;3.10;;
487;SDS011;16586;48.976;9.584;2022-12-16T17:03:23;3.70;;;3.50;;
487;SDS011;16586;48.976;9.584;2022-12-16T17:06:07;3.20;;;3.00;;
487;SDS011;16586;48.976;9.584;2022-12-16T17:08:51;3.47;;;3.10;;
487;SDS011;16586;48.976;9.584;2022-12-16T17:11:36;3.00;;;2.80;;
487;SDS011;16586;48.976;9.584;2022-12-16T17:14:21;2.90;;;2.67;;
487;SDS011;16586;48.976;9.584;2022-12-16T17:17:05;3.22;;;3.10;;
487;SDS011;16586;48.976;9.584;2022-12-16T17:19:52;3.50;;;3.30;;
487;SDS011;16586;48.976;9.584;2022-12-16T17:22:36;3.30;;;3.20;;
487;SDS011;16586;48.976;9.584;2022-12-16T17:25:20;3.42;;;3.22;;